createdAt,value
2023-04-15T00:00:01.744Z,75.12
2023-04-15T00:01:01.663Z,75.26
2023-04-15T00:02:01.775Z,75.46
2023-04-15T00:03:01.831Z,75.57
2023-04-15T00:04:01.871Z,75.88
2023-04-15T00:05:01.609Z,75.67
2023-04-15T00:06:01.607Z,75.46
2023-04-15T00:07:01.600Z,75.26
2023-04-15T00:08:01.571Z,75.46
2023-04-15T00:09:01.822Z,75.67
2023-04-15T00:10:01.542Z,75.67
2023-04-15T00:11:01.531Z,75.78
2023-04-15T00:12:01.520Z,75.98
2023-04-15T00:13:01.520Z,76.09
2023-04-15T00:14:01.504Z,75.88
2023-04-15T00:15:01.496Z,75.60
2023-04-15T00:16:01.491Z,75.19
2023-04-15T00:17:01.569Z,75.29
2023-04-15T00:18:01.473Z,75.50
2023-04-15T00:19:01.592Z,76.12
2023-04-15T00:20:01.473Z,76.23
2023-04-15T00:21:01.433Z,76.33
2023-04-15T00:22:01.427Z,76.54
2023-04-15T00:23:01.441Z,76.78
2023-04-15T00:24:01.411Z,77.09
2023-04-15T00:25:01.433Z,77.30
2023-04-15T00:26:01.398Z,77.40
2023-04-15T00:27:01.374Z,77.26
2023-04-15T00:28:01.504Z,77.06
2023-04-15T00:29:01.690Z,77.06
2023-04-15T00:30:01.361Z,76.75
2023-04-15T00:31:01.453Z,76.64
2023-04-15T00:32:01.367Z,76.54
2023-04-15T00:33:01.398Z,76.43
2023-04-15T00:34:01.348Z,76.43
2023-04-15T00:35:01.312Z,76.54
2023-04-15T00:36:01.329Z,76.54
2023-04-15T00:37:01.357Z,76.54
2023-04-15T00:38:01.247Z,76.43
2023-04-15T00:39:01.498Z,76.33
2023-04-15T00:40:01.220Z,76.12
2023-04-15T00:41:01.224Z,76.12
2023-04-15T00:42:01.277Z,76.12
2023-04-15T00:43:01.198Z,76.43
2023-04-15T00:44:01.283Z,76.54
2023-04-15T00:45:01.200Z,76.85
2023-04-15T00:46:01.184Z,77.09
2023-04-15T00:47:01.172Z,77.20
2023-04-15T00:48:01.224Z,77.30
2023-04-15T00:49:01.280Z,76.99
2023-04-15T00:50:01.118Z,76.78
2023-04-15T00:51:01.124Z,76.68
2023-04-15T00:52:01.126Z,76.57
2023-04-15T00:53:01.114Z,76.57
2023-04-15T00:54:01.098Z,76.78
2023-04-15T00:55:01.099Z,76.89
2023-04-15T00:56:01.066Z,76.99
2023-04-15T00:57:01.068Z,76.89
2023-04-15T00:58:01.094Z,76.99
2023-04-15T00:59:01.231Z,77.09
2023-04-15T01:00:01.056Z,77.30
2023-04-15T01:01:01.033Z,77.40
2023-04-15T01:02:01.083Z,77.40
2023-04-15T01:03:01.117Z,77.51
2023-04-15T01:04:01.133Z,77.82
2023-04-15T01:05:00.987Z,77.92
2023-04-15T01:06:03.630Z,77.85
2023-04-15T01:07:00.949Z,77.85
2023-04-15T01:08:00.953Z,78.16
2023-04-15T01:09:01.125Z,78.27
2023-04-15T01:10:00.927Z,78.27
2023-04-15T01:11:00.918Z,78.27
2023-04-15T01:12:00.898Z,78.16
2023-04-15T01:13:00.917Z,78.06
2023-04-15T01:14:00.894Z,77.75
2023-04-15T01:15:00.871Z,77.64
2023-04-15T01:16:00.911Z,77.64
2023-04-15T01:17:00.872Z,77.64
2023-04-15T01:18:00.909Z,77.75
2023-04-15T01:19:01.049Z,77.85
2023-04-15T01:20:00.893Z,77.95
2023-04-15T01:21:00.830Z,77.95
2023-04-15T01:22:00.810Z,78.06
2023-04-15T01:23:00.818Z,78.16
2023-04-15T01:24:00.818Z,78.16
2023-04-15T01:25:00.776Z,78.06
2023-04-15T01:26:00.772Z,78.16
2023-04-15T01:27:00.764Z,78.41
2023-04-15T01:28:00.752Z,78.61
2023-04-15T01:29:00.962Z,78.92
2023-04-15T01:30:00.784Z,79.03
2023-04-15T01:31:00.773Z,79.13
2023-04-15T01:32:00.702Z,79.03
2023-04-15T01:33:00.728Z,79.13
2023-04-15T01:34:00.721Z,79.24
2023-04-15T01:35:00.690Z,79.34
2023-04-15T01:36:00.662Z,79.24
2023-04-15T01:37:00.688Z,79.13
2023-04-15T01:38:00.650Z,79.24
2023-04-15T01:39:00.798Z,79.03
2023-04-15T01:40:00.647Z,79.03
2023-04-15T01:41:00.660Z,78.92
2023-04-15T01:42:00.640Z,78.82
2023-04-15T01:43:00.587Z,78.82
2023-04-15T01:44:00.624Z,78.72
2023-04-15T01:45:00.596Z,78.82
2023-04-15T01:46:00.568Z,79.03
2023-04-15T01:47:00.639Z,79.13
2023-04-15T01:48:00.607Z,78.92
2023-04-15T01:49:00.677Z,78.72
2023-04-15T01:50:00.529Z,78.61
2023-04-15T01:51:00.521Z,78.72
2023-04-15T01:52:00.517Z,78.82
2023-04-15T01:53:00.500Z,79.03
2023-04-15T01:54:00.508Z,79.03
2023-04-15T01:55:00.495Z,78.82
2023-04-15T01:56:00.455Z,78.92
2023-04-15T01:57:00.475Z,78.92
2023-04-15T01:58:00.451Z,79.03
2023-04-15T01:59:00.637Z,78.92
2023-04-15T02:00:00.446Z,79.03
2023-04-15T02:01:00.525Z,79.38
2023-04-15T02:02:00.446Z,79.03
2023-04-15T02:03:00.555Z,78.92
2023-04-15T02:04:00.410Z,78.72
2023-04-15T02:05:00.377Z,78.82
2023-04-15T02:06:00.377Z,79.03
2023-04-15T02:07:00.368Z,79.03
2023-04-15T02:08:00.343Z,79.03
2023-04-15T02:09:00.648Z,79.13
2023-04-15T02:10:00.328Z,79.06
2023-04-15T02:11:00.353Z,79.17
2023-04-15T02:12:00.307Z,79.27
2023-04-15T02:13:00.330Z,79.27
2023-04-15T02:14:00.296Z,79.27
2023-04-15T02:15:00.274Z,79.27
2023-04-15T02:16:00.277Z,79.38
2023-04-15T02:17:00.277Z,79.58
2023-04-15T02:18:00.275Z,79.90
2023-04-15T02:19:00.516Z,79.90
2023-04-15T02:20:00.228Z,79.69
2023-04-15T02:21:00.211Z,79.38
2023-04-15T02:22:00.232Z,79.38
2023-04-15T02:23:00.229Z,79.58
2023-04-15T02:24:00.199Z,79.80
2023-04-15T02:25:00.189Z,79.83
2023-04-15T02:26:00.177Z,80.15
2023-04-15T02:27:00.198Z,80.25
2023-04-15T02:28:00.152Z,80.25
2023-04-15T02:29:00.465Z,80.25
2023-04-15T02:30:00.306Z,80.00
2023-04-15T02:31:00.136Z,79.80
2023-04-15T02:32:00.243Z,79.58
2023-04-15T02:33:00.170Z,79.48
2023-04-15T02:34:00.127Z,79.48
2023-04-15T02:35:00.081Z,79.58
2023-04-15T02:36:00.072Z,79.62
2023-04-15T02:37:00.062Z,79.72
2023-04-15T02:38:00.066Z,79.94
2023-04-15T02:39:00.289Z,79.94
2023-04-15T02:40:00.056Z,79.94
2023-04-15T02:41:00.046Z,80.15
2023-04-15T02:42:00.038Z,80.25
2023-04-15T02:43:00.022Z,80.15
2023-04-15T02:44:00.005Z,80.18
2023-04-15T02:44:59.983Z,80.18
2023-04-15T02:46:00.058Z,80.18
2023-04-15T02:46:59.972Z,80.08
2023-04-15T02:47:59.972Z,80.08
2023-04-15T02:49:00.473Z,80.29
2023-04-15T02:49:59.945Z,80.25
2023-04-15T02:51:00.007Z,80.25
2023-04-15T02:51:59.926Z,80.15
2023-04-15T02:52:59.905Z,79.83
2023-04-15T02:53:59.915Z,79.52
2023-04-15T02:54:59.893Z,79.55
2023-04-15T02:55:59.865Z,79.87
2023-04-15T02:56:59.853Z,80.29
2023-04-15T02:57:59.859Z,80.74
2023-04-15T02:59:00.061Z,81.05
2023-04-15T02:59:59.829Z,81.26
2023-04-15T03:00:59.849Z,81.26
2023-04-15T03:01:59.858Z,81.15
2023-04-15T03:02:59.954Z,81.36
2023-04-15T03:03:59.885Z,81.46
2023-04-15T03:04:59.780Z,81.57
2023-04-15T03:05:59.768Z,81.46
2023-04-15T03:06:59.772Z,81.26
2023-04-15T03:07:59.767Z,81.15
2023-04-15T03:08:59.887Z,81.15
2023-04-15T03:09:59.762Z,81.26
2023-04-15T03:10:59.724Z,80.94
2023-04-15T03:11:59.734Z,80.63
2023-04-15T03:12:59.691Z,80.63
2023-04-15T03:13:59.722Z,80.84
2023-04-15T03:14:59.699Z,81.29
2023-04-15T03:15:59.710Z,81.29
2023-04-15T03:16:59.705Z,81.26
2023-04-15T03:17:59.700Z,81.46
2023-04-15T03:18:59.905Z,81.36
2023-04-15T03:19:59.671Z,81.05
2023-04-15T03:20:59.617Z,80.94
2023-04-15T03:21:59.649Z,81.05
2023-04-15T03:22:59.601Z,81.05
2023-04-15T03:23:59.608Z,80.74
2023-04-15T03:24:59.586Z,80.74
2023-04-15T03:25:59.571Z,80.74
2023-04-15T03:26:59.581Z,80.94
2023-04-15T03:27:59.580Z,81.15
2023-04-15T03:28:59.912Z,81.26
2023-04-15T03:29:59.563Z,81.05
2023-04-15T03:30:59.533Z,81.05
2023-04-15T03:31:59.528Z,81.01
2023-04-15T03:32:59.636Z,81.01
2023-04-15T03:33:59.488Z,80.91
2023-04-15T03:34:59.493Z,80.91
2023-04-15T03:35:59.476Z,80.70
2023-04-15T03:36:59.454Z,80.70
2023-04-15T03:37:59.466Z,80.94
2023-04-15T03:38:59.657Z,81.01
2023-04-15T03:39:59.381Z,81.22
2023-04-15T03:40:59.425Z,81.26
2023-04-15T03:41:59.424Z,81.36
2023-04-15T03:42:59.436Z,81.36
2023-04-15T03:43:59.398Z,81.26
2023-04-15T03:44:59.394Z,80.70
2023-04-15T03:46:01.373Z,80.63
2023-04-15T03:46:59.371Z,80.74
2023-04-15T03:48:15.631Z,80.74
2023-04-15T03:48:59.448Z,80.94
2023-04-15T03:49:59.331Z,81.05
2023-04-15T03:50:59.330Z,81.15
2023-04-15T03:51:59.320Z,81.36
2023-04-15T03:52:59.318Z,81.46
2023-04-15T03:53:59.354Z,81.57
2023-04-15T03:54:59.275Z,81.46
2023-04-15T03:55:59.284Z,81.15
2023-04-15T03:56:59.224Z,80.74
2023-04-15T03:57:59.211Z,80.53
2023-04-15T03:58:59.336Z,80.53
2023-04-15T03:59:59.203Z,80.74
2023-04-15T04:00:59.178Z,80.74
2023-04-15T04:01:59.350Z,80.94
2023-04-15T04:02:59.295Z,81.15
2023-04-15T04:03:59.260Z,81.36
2023-04-15T04:04:59.129Z,81.46
2023-04-15T04:05:59.151Z,81.40
2023-04-15T04:06:59.120Z,81.29
2023-04-15T04:07:59.109Z,81.29
2023-04-15T04:08:59.166Z,81.40
2023-04-15T04:09:59.106Z,81.77
2023-04-15T04:10:59.097Z,81.46
2023-04-15T04:11:59.084Z,81.26
2023-04-15T04:12:59.075Z,81.26
2023-04-15T04:13:59.044Z,81.26
2023-04-15T04:14:59.114Z,81.15
2023-04-15T04:15:59.133Z,81.15
2023-04-15T04:16:59.069Z,81.05
2023-04-15T04:17:59.115Z,80.84
2023-04-15T04:18:59.150Z,80.49
2023-04-15T04:19:58.992Z,80.49
2023-04-15T04:20:58.991Z,80.18
2023-04-15T04:21:58.996Z,80.08
2023-04-15T04:22:58.974Z,80.22
2023-04-15T04:23:58.989Z,80.32
2023-04-15T04:24:58.953Z,80.53
2023-04-15T04:25:58.921Z,80.43
2023-04-15T04:26:58.921Z,80.43
2023-04-15T04:27:58.971Z,80.74
2023-04-15T04:28:59.022Z,80.74
2023-04-15T04:29:58.872Z,80.74
2023-04-15T04:30:58.864Z,80.63
2023-04-15T04:31:58.917Z,80.63
2023-04-15T04:32:59.039Z,80.63
2023-04-15T04:33:58.838Z,80.43
2023-04-15T04:34:58.824Z,80.43
2023-04-15T04:35:58.810Z,80.22
2023-04-15T04:36:58.810Z,80.32
2023-04-15T04:37:58.823Z,80.43
2023-04-15T04:38:58.854Z,80.53
2023-04-15T04:39:58.797Z,80.63
2023-04-15T04:40:58.779Z,80.53
2023-04-15T04:41:58.787Z,80.63
2023-04-15T04:42:58.787Z,80.94
2023-04-15T04:43:58.746Z,80.84
2023-04-15T04:44:58.745Z,80.63
2023-04-15T04:45:58.768Z,80.53
2023-04-15T04:46:58.720Z,80.53
2023-04-15T04:47:58.745Z,80.74
2023-04-15T04:48:58.700Z,80.74
2023-04-15T04:49:58.679Z,80.74
2023-04-15T04:50:58.686Z,80.84
2023-04-15T04:51:58.661Z,80.94
2023-04-15T04:52:58.657Z,81.26
2023-04-15T04:53:58.656Z,80.53
2023-04-15T04:54:58.650Z,80.32
2023-04-15T04:55:58.632Z,80.22
2023-04-15T04:56:58.598Z,80.43
2023-04-15T04:57:58.621Z,80.63
2023-04-15T04:58:58.695Z,80.74
2023-04-15T04:59:58.578Z,80.74
2023-04-15T05:00:58.596Z,80.74
2023-04-15T05:01:58.624Z,80.63
2023-04-15T05:02:58.695Z,80.63
2023-04-15T05:03:58.651Z,80.53
2023-04-15T05:04:58.538Z,80.22
2023-04-15T05:05:58.513Z,79.69
2023-04-15T05:06:58.537Z,79.45
2023-04-15T05:07:58.519Z,79.14
2023-04-15T05:08:58.539Z,78.48
2023-04-15T05:09:58.526Z,77.75
2023-04-15T05:10:58.463Z,76.85
2023-04-15T05:11:58.471Z,75.12
2023-04-15T05:12:58.532Z,73.18
2023-04-15T05:13:58.468Z,72.01
2023-04-15T05:14:58.432Z,71.28
2023-04-15T05:15:58.500Z,70.42
2023-04-15T05:16:58.422Z,69.15
2023-04-15T05:17:58.441Z,67.40
2023-04-15T05:18:58.430Z,64.93
2023-04-15T05:19:58.395Z,62.81
2023-04-15T05:20:58.381Z,61.41
2023-04-15T05:21:58.353Z,59.70
2023-04-15T05:22:58.361Z,57.90
2023-04-15T05:23:58.364Z,56.74
2023-04-15T05:24:58.322Z,56.41
2023-04-15T05:25:58.336Z,55.49
2023-04-15T05:26:58.297Z,55.38
2023-04-15T05:27:58.320Z,55.28
2023-04-15T05:28:58.290Z,55.59
2023-04-15T05:29:58.305Z,55.36
2023-04-15T05:30:58.342Z,55.46
2023-04-15T05:31:58.278Z,55.33
2023-04-15T05:32:58.352Z,54.82
2023-04-15T05:33:58.252Z,53.97
2023-04-15T05:34:58.256Z,52.69
2023-04-15T05:35:58.214Z,51.85
2023-04-15T05:36:58.194Z,51.21
2023-04-15T05:37:58.221Z,50.88
2023-04-15T05:38:58.186Z,50.14
2023-04-15T05:39:58.168Z,49.40
2023-04-15T05:40:58.152Z,49.19
2023-04-15T05:41:58.156Z,49.40
2023-04-15T05:42:58.150Z,49.30
2023-04-15T05:43:58.126Z,49.60
2023-04-15T05:44:58.111Z,49.09
2023-04-15T05:45:58.137Z,48.25
2023-04-15T05:46:58.114Z,47.82
2023-04-15T05:47:58.140Z,47.74
2023-04-15T05:48:58.089Z,48.58
2023-04-15T05:49:58.075Z,50.42
2023-04-15T05:50:58.078Z,52.64
2023-04-15T05:51:58.047Z,54.59
2023-04-15T05:52:58.048Z,56.70
2023-04-15T05:53:58.034Z,57.98
2023-04-15T05:54:58.028Z,59.48
2023-04-15T05:55:58.028Z,60.75
2023-04-15T05:56:58.012Z,61.26
2023-04-15T05:57:57.992Z,61.57
2023-04-15T05:58:57.986Z,61.36
2023-04-15T05:59:57.989Z,61.80
2023-04-15T06:00:57.964Z,62.74
2023-04-15T06:01:57.984Z,63.35
2023-04-15T06:02:58.068Z,63.87
2023-04-15T06:03:58.048Z,63.56
2023-04-15T06:04:58.008Z,63.35
2023-04-15T06:05:57.903Z,63.25
2023-04-15T06:06:57.895Z,64.00
2023-04-15T06:07:57.887Z,64.14
2023-04-15T06:08:57.900Z,64.21
2023-04-15T06:09:57.875Z,64.11
2023-04-15T06:10:57.856Z,63.69
2023-04-15T06:11:57.864Z,63.67
2023-04-15T06:12:57.869Z,63.15
2023-04-15T06:13:57.866Z,62.81
2023-04-15T06:14:59.581Z,62.57
2023-04-15T06:15:57.904Z,61.85
2023-04-15T06:16:57.835Z,61.65
2023-04-15T06:17:57.850Z,61.33
2023-04-15T06:18:57.797Z,61.31
2023-04-15T06:19:57.764Z,61.61
2023-04-15T06:20:57.769Z,61.52
2023-04-15T06:21:57.761Z,61.10
2023-04-15T06:22:57.740Z,61.31
2023-04-15T06:23:57.738Z,60.46
2023-04-15T06:24:57.729Z,60.94
2023-04-15T06:25:57.720Z,60.37
2023-04-15T06:26:57.697Z,59.19
2023-04-15T06:27:58.354Z,58.13
2023-04-15T06:28:57.722Z,56.74
2023-04-15T06:29:57.698Z,56.13
2023-04-15T06:30:57.656Z,55.72
2023-04-15T06:31:57.744Z,55.28
2023-04-15T06:32:57.705Z,54.87
2023-04-15T06:33:57.654Z,54.33
2023-04-15T06:34:57.619Z,54.00
2023-04-15T06:35:57.619Z,53.36
2023-04-15T06:36:57.638Z,53.16
2023-04-15T06:37:57.580Z,52.83
2023-04-15T06:38:57.594Z,53.05
2023-04-15T06:39:57.560Z,53.39
2023-04-15T06:40:57.549Z,53.51
2023-04-15T06:41:57.538Z,54.02
2023-04-15T06:42:57.614Z,54.59
2023-04-15T06:43:57.561Z,55.54
2023-04-15T06:44:57.540Z,56.18
2023-04-15T06:45:57.563Z,56.70
2023-04-15T06:46:57.486Z,56.67
2023-04-15T06:47:57.508Z,56.46
2023-04-15T06:48:57.485Z,56.34
2023-04-15T06:49:57.468Z,56.46
2023-04-15T06:50:57.448Z,56.56
2023-04-15T06:51:57.442Z,56.77
2023-04-15T06:52:57.444Z,56.87
2023-04-15T06:53:57.413Z,56.87
2023-04-15T06:54:57.434Z,57.41
2023-04-15T06:55:57.395Z,57.95
2023-04-15T06:56:57.390Z,58.13
2023-04-15T06:57:57.407Z,58.13
2023-04-15T06:58:57.366Z,57.82
2023-04-15T06:59:57.419Z,57.93
2023-04-15T07:00:57.362Z,57.41
2023-04-15T07:01:57.412Z,57.00
2023-04-15T07:02:57.377Z,57.95
2023-04-15T07:03:57.326Z,58.26
2023-04-15T07:04:57.303Z,58.26
2023-04-15T07:05:57.304Z,58.13
2023-04-15T07:06:57.303Z,57.62
2023-04-15T07:07:57.292Z,57.51
2023-04-15T07:08:57.264Z,57.39
2023-04-15T07:09:57.243Z,56.98
2023-04-15T07:10:57.284Z,57.18
2023-04-15T07:11:57.248Z,57.15
2023-04-15T07:12:57.259Z,56.95
2023-04-15T07:13:57.217Z,56.64
2023-04-15T07:14:57.230Z,56.00
2023-04-15T07:15:57.203Z,55.69
2023-04-15T07:16:57.194Z,55.56
2023-04-15T07:17:57.220Z,55.36
2023-04-15T07:18:57.177Z,55.02
2023-04-15T07:19:57.139Z,54.41
2023-04-15T07:20:57.168Z,54.38
2023-04-15T07:21:57.120Z,53.64
2023-04-15T07:22:57.196Z,53.36
2023-04-15T07:23:57.119Z,53.67
2023-04-15T07:24:57.112Z,53.85
2023-04-15T07:25:57.087Z,53.33
2023-04-15T07:26:58.547Z,53.75
2023-04-15T07:27:57.101Z,53.95
2023-04-15T07:28:57.055Z,53.85
2023-04-15T07:29:57.057Z,53.85
2023-04-15T07:30:57.079Z,53.64
2023-04-15T07:31:57.041Z,53.54
2023-04-15T07:32:57.088Z,52.31
2023-04-15T07:33:57.007Z,52.83
2023-04-15T07:34:57.012Z,53.44
2023-04-15T07:35:56.986Z,53.52
2023-04-15T07:36:56.981Z,52.70
2023-04-15T07:37:56.961Z,51.65
2023-04-15T07:38:56.970Z,51.75
2023-04-15T07:39:56.959Z,51.65
2023-04-15T07:40:56.941Z,50.91
2023-04-15T07:41:56.943Z,50.40
2023-04-15T07:42:56.935Z,50.50
2023-04-15T07:43:56.925Z,50.40
2023-04-15T07:44:56.898Z,50.17
2023-04-15T07:45:56.925Z,49.07
2023-04-15T07:46:56.896Z,48.97
2023-04-15T07:47:56.956Z,49.50
2023-04-15T07:48:56.878Z,49.60
2023-04-15T07:49:56.877Z,49.71
2023-04-15T07:50:56.886Z,50.01
2023-04-15T07:51:56.841Z,49.99
2023-04-15T07:52:56.823Z,49.48
2023-04-15T07:53:56.815Z,49.46
2023-04-15T07:54:56.851Z,49.66
2023-04-15T07:55:56.786Z,49.55
2023-04-15T07:56:56.761Z,48.74
2023-04-15T07:57:56.789Z,48.82
2023-04-15T07:58:56.761Z,49.22
2023-04-15T07:59:56.737Z,48.54
2023-04-15T08:00:56.775Z,48.94
2023-04-15T08:01:56.763Z,49.17
2023-04-15T08:02:56.882Z,49.38
2023-04-15T08:03:56.938Z,48.86
2023-04-15T08:04:56.704Z,49.27
2023-04-15T08:05:56.664Z,48.84
2023-04-15T08:06:56.682Z,49.05
2023-04-15T08:07:56.662Z,49.25
2023-04-15T08:08:56.667Z,48.92
2023-04-15T08:09:56.638Z,48.31
2023-04-15T08:10:56.618Z,48.51
2023-04-15T08:11:56.631Z,48.82
2023-04-15T08:12:56.598Z,48.59
2023-04-15T08:13:56.623Z,47.67
2023-04-15T08:14:56.599Z,47.34
2023-04-15T08:15:56.588Z,47.75
2023-04-15T08:16:56.579Z,46.94
2023-04-15T08:17:56.554Z,47.45
2023-04-15T08:18:56.559Z,47.24
2023-04-15T08:19:56.517Z,47.83
2023-04-15T08:20:56.529Z,47.81
2023-04-15T08:21:56.498Z,47.00
2023-04-15T08:22:56.493Z,47.09
2023-04-15T08:23:56.529Z,47.20
2023-04-15T08:24:56.474Z,46.56
2023-04-15T08:25:56.488Z,46.56
2023-04-15T08:26:56.488Z,46.36
2023-04-15T08:27:56.427Z,46.97
2023-04-15T08:28:56.476Z,45.45
2023-04-15T08:29:56.436Z,44.65
2023-04-15T08:30:56.405Z,45.95
2023-04-15T08:31:56.478Z,45.14
2023-04-15T08:32:56.461Z,45.85
2023-04-15T08:33:56.389Z,45.54
2023-04-15T08:34:56.378Z,45.04
2023-04-15T08:35:56.358Z,45.24
2023-04-15T08:36:56.359Z,45.54
2023-04-15T08:37:56.345Z,45.47
2023-04-15T08:38:56.380Z,45.98
2023-04-15T08:39:56.316Z,45.77
2023-04-15T08:40:56.305Z,45.77
2023-04-15T08:41:56.288Z,45.95
2023-04-15T08:42:56.293Z,46.26
2023-04-15T08:43:56.292Z,46.15
2023-04-15T08:44:56.274Z,45.24
2023-04-15T08:45:56.249Z,45.34
2023-04-15T08:46:56.304Z,45.24
2023-04-15T08:47:56.275Z,44.20
2023-04-15T08:48:56.249Z,44.00
2023-04-15T08:49:56.231Z,44.02
2023-04-15T08:50:56.209Z,44.31
2023-04-15T08:51:56.210Z,43.49
2023-04-15T08:52:56.282Z,43.29
2023-04-15T08:53:56.216Z,43.29
2023-04-15T08:54:56.176Z,43.77
2023-04-15T08:55:56.159Z,43.16
2023-04-15T08:56:56.154Z,43.57
2023-04-15T08:57:56.123Z,42.76
2023-04-15T08:58:56.165Z,40.52
2023-04-15T08:59:56.132Z,41.25
2023-04-15T09:00:56.212Z,39.62
2023-04-15T09:01:56.136Z,39.84
2023-04-15T09:02:56.139Z,40.12
2023-04-15T09:03:56.183Z,40.12
2023-04-15T09:04:56.068Z,38.80
2023-04-15T09:05:56.052Z,39.72
2023-04-15T09:06:56.032Z,40.12
2023-04-15T09:07:56.084Z,39.62
2023-04-15T09:08:56.035Z,39.62
2023-04-15T09:09:56.005Z,39.21
2023-04-15T09:10:56.016Z,39.84
2023-04-15T09:11:56.001Z,39.51
2023-04-15T09:12:55.988Z,38.29
2023-04-15T09:13:56.003Z,38.68
2023-04-15T09:14:55.948Z,38.78
2023-04-15T09:15:55.974Z,39.07
2023-04-15T09:16:56.002Z,39.66
2023-04-15T09:17:55.949Z,38.65
2023-04-15T09:18:55.949Z,38.85
2023-04-15T09:19:55.939Z,38.65
2023-04-15T09:20:55.896Z,37.75
2023-04-15T09:21:58.432Z,38.26
2023-04-15T09:22:55.864Z,38.06
2023-04-15T09:23:55.883Z,38.56
2023-04-15T09:24:55.862Z,38.45
2023-04-15T09:25:55.830Z,37.73
2023-04-15T09:26:55.827Z,37.73
2023-04-15T09:27:55.819Z,35.90
2023-04-15T09:28:55.927Z,36.39
2023-04-15T09:29:55.815Z,36.21
2023-04-15T09:30:55.792Z,36.82
2023-04-15T09:31:55.865Z,36.90
2023-04-15T09:32:55.800Z,37.30
2023-04-15T09:33:55.771Z,37.41
2023-04-15T09:34:55.758Z,38.02
2023-04-15T09:35:55.738Z,37.73
2023-04-15T09:36:55.715Z,36.92
2023-04-15T09:37:55.802Z,36.92
2023-04-15T09:38:55.697Z,36.61
2023-04-15T09:39:55.680Z,36.21
2023-04-15T09:40:55.708Z,36.21
2023-04-15T09:41:55.678Z,36.31
2023-04-15T09:42:55.680Z,35.99
2023-04-15T09:43:55.672Z,36.39
2023-04-15T09:44:55.682Z,35.70
2023-04-15T09:45:55.712Z,35.29
2023-04-15T09:46:55.637Z,34.88
2023-04-15T09:47:56.962Z,35.09
2023-04-15T09:48:55.622Z,36.53
2023-04-15T09:49:55.627Z,36.73
2023-04-15T09:50:55.635Z,36.82
2023-04-15T09:52:04.930Z,34.70
2023-04-15T09:52:55.646Z,36.21
2023-04-15T09:53:55.556Z,36.82
2023-04-15T09:54:55.546Z,37.21
2023-04-15T09:55:55.554Z,37.21
2023-04-15T09:56:55.515Z,36.51
2023-04-15T09:57:55.506Z,35.51
2023-04-15T09:58:55.515Z,36.61
2023-04-15T09:59:55.509Z,36.92
2023-04-15T10:00:55.467Z,36.31
2023-04-15T10:01:55.589Z,36.80
2023-04-15T10:02:55.562Z,36.19
2023-04-15T10:03:55.519Z,33.54
2023-04-15T10:04:55.434Z,34.75
2023-04-15T10:05:55.427Z,36.68
2023-04-15T10:06:55.434Z,35.88
2023-04-15T10:07:55.411Z,36.78
2023-04-15T10:08:55.446Z,36.88
2023-04-15T10:09:55.376Z,38.43
2023-04-15T10:10:55.390Z,38.92
2023-04-15T10:11:55.349Z,35.95
2023-04-15T10:12:55.378Z,34.61
2023-04-15T10:13:55.351Z,34.72
2023-04-15T10:14:55.342Z,32.59
2023-04-15T10:15:55.461Z,32.28
2023-04-15T10:16:55.323Z,32.40
2023-04-15T10:17:55.327Z,33.21
2023-04-15T10:18:55.315Z,33.83
2023-04-15T10:19:55.283Z,34.44
2023-04-15T10:20:55.279Z,34.36
2023-04-15T10:21:55.297Z,34.07
2023-04-15T10:22:55.317Z,34.48
2023-04-15T10:23:55.296Z,34.68
2023-04-15T10:24:55.293Z,34.88
2023-04-15T10:25:55.255Z,33.68
2023-04-15T10:26:55.219Z,34.78
2023-04-15T10:27:55.206Z,34.48
2023-04-15T10:28:55.186Z,35.17
2023-04-15T10:29:55.181Z,35.17
2023-04-15T10:30:55.194Z,34.97
2023-04-15T10:31:55.151Z,34.66
2023-04-15T10:32:55.192Z,34.56
2023-04-15T10:33:55.146Z,34.97
2023-04-15T10:34:55.143Z,34.87
2023-04-15T10:35:55.101Z,35.39
2023-04-15T10:36:55.092Z,34.99
2023-04-15T10:37:55.127Z,35.51
2023-04-15T10:38:55.126Z,36.12
2023-04-15T10:39:55.081Z,36.32
2023-04-15T10:40:55.071Z,36.51
2023-04-15T10:41:55.051Z,36.61
2023-04-15T10:42:55.040Z,36.61
2023-04-15T10:43:55.035Z,37.24
2023-04-15T10:44:55.010Z,37.45
2023-04-15T10:45:55.008Z,37.65
2023-04-15T10:46:55.155Z,37.84
2023-04-15T10:47:55.026Z,35.90
2023-04-15T10:48:55.009Z,36.10
2023-04-15T10:49:54.983Z,36.19
2023-04-15T10:50:54.944Z,35.17
2023-04-15T10:51:54.956Z,35.07
2023-04-15T10:52:54.935Z,34.75
2023-04-15T10:53:54.930Z,35.46
2023-04-15T10:54:54.922Z,36.29
2023-04-15T10:55:54.914Z,36.21
2023-04-15T10:56:54.912Z,37.32
2023-04-15T10:57:54.914Z,37.12
2023-04-15T10:58:54.878Z,38.36
2023-04-15T10:59:54.874Z,40.30
2023-04-15T11:00:54.862Z,39.82
2023-04-15T11:01:55.020Z,40.76
2023-04-15T11:02:54.945Z,40.64
2023-04-15T11:03:54.985Z,41.45
2023-04-15T11:04:55.098Z,41.86
2023-04-15T11:05:54.817Z,42.47
2023-04-15T11:06:54.808Z,42.59
2023-04-15T11:07:54.792Z,43.41
2023-04-15T11:08:54.783Z,43.32
2023-04-15T11:09:54.765Z,44.04
2023-04-15T11:10:54.791Z,44.45
2023-04-15T11:11:54.746Z,45.26
2023-04-15T11:12:54.726Z,45.87
2023-04-15T11:13:54.739Z,46.38
2023-04-15T11:14:54.706Z,47.02
2023-04-15T11:15:54.688Z,47.12
2023-04-15T11:16:54.711Z,47.30
2023-04-15T11:17:54.693Z,48.03
2023-04-15T11:18:54.700Z,48.83
2023-04-15T11:19:54.648Z,47.09
2023-04-15T11:20:54.634Z,47.20
2023-04-15T11:21:54.621Z,47.08
2023-04-15T11:23:13.855Z,46.44
2023-04-15T11:23:54.647Z,45.42
2023-04-15T11:24:54.608Z,45.32
2023-04-15T11:25:54.587Z,44.59
2023-04-15T11:26:54.581Z,44.46
2023-04-15T11:27:54.564Z,43.44
2023-04-15T11:28:54.576Z,44.06
2023-04-15T11:29:54.553Z,43.84
2023-04-15T11:30:54.543Z,43.12
2023-04-15T11:31:54.576Z,42.61
2023-04-15T11:32:54.556Z,41.80
2023-04-15T11:33:54.560Z,42.19
2023-04-15T11:34:54.510Z,41.19
2023-04-15T11:35:54.490Z,41.41
2023-04-15T11:36:54.500Z,41.52
2023-04-15T11:37:54.531Z,41.00
2023-04-15T11:38:54.469Z,40.92
2023-04-15T11:39:54.468Z,41.33
2023-04-15T11:40:54.439Z,40.82
2023-04-15T11:41:54.421Z,40.64
2023-04-15T11:42:54.458Z,41.35
2023-04-15T11:43:54.441Z,41.53
2023-04-15T11:44:54.388Z,41.41
2023-04-15T11:45:54.472Z,38.76
2023-04-15T11:46:54.370Z,36.61
2023-04-15T11:47:54.446Z,36.69
2023-04-15T11:48:54.366Z,36.69
2023-04-15T11:49:54.333Z,37.70
2023-04-15T11:50:54.351Z,37.37
2023-04-15T11:51:54.457Z,37.35
2023-04-15T11:52:54.326Z,37.98
2023-04-15T11:53:54.319Z,38.09
2023-04-15T11:54:54.294Z,39.51
2023-04-15T11:55:54.306Z,38.79
2023-04-15T11:56:54.258Z,37.58
2023-04-15T11:57:54.283Z,38.39
2023-04-15T11:58:54.262Z,38.00
2023-04-15T11:59:54.250Z,37.80
2023-04-15T12:00:54.240Z,38.00
2023-04-15T12:01:54.273Z,38.09
2023-04-15T12:02:54.322Z,37.58
2023-04-15T12:03:54.381Z,36.54
2023-04-15T12:04:54.265Z,36.58
2023-04-15T12:05:54.183Z,37.41
2023-04-15T12:06:54.184Z,38.10
2023-04-15T12:07:54.162Z,36.99
2023-04-15T12:08:54.159Z,37.19
2023-04-15T12:09:54.149Z,37.70
2023-04-15T12:10:54.132Z,37.58
2023-04-15T12:11:54.124Z,37.76
2023-04-15T12:12:54.098Z,37.87
2023-04-15T12:13:54.116Z,38.25
2023-04-15T12:14:54.084Z,37.46
2023-04-15T12:15:54.112Z,38.09
2023-04-15T12:16:54.127Z,37.56
2023-04-15T12:17:54.108Z,37.66
2023-04-15T12:18:54.060Z,39.20
2023-04-15T12:19:54.021Z,39.42
2023-04-15T12:20:54.011Z,40.56
2023-04-15T12:21:54.026Z,40.78
2023-04-15T12:22:54.008Z,41.47
2023-04-15T12:23:54.005Z,40.95
2023-04-15T12:24:53.998Z,40.32
2023-04-15T12:25:53.976Z,40.52
2023-04-15T12:26:54.015Z,39.83
2023-04-15T12:27:53.972Z,40.32
2023-04-15T12:28:53.961Z,40.62
2023-04-15T12:29:53.953Z,40.64
2023-04-15T12:30:54.064Z,41.17
2023-04-15T12:31:53.927Z,42.69
2023-04-15T12:32:53.940Z,41.56
2023-04-15T12:33:53.938Z,42.17
2023-04-15T12:34:53.989Z,42.57
2023-04-15T12:35:53.900Z,41.86
2023-04-15T12:36:53.847Z,41.99
2023-04-15T12:37:53.908Z,42.19
2023-04-15T12:38:53.902Z,41.99
2023-04-15T12:39:53.888Z,41.58
2023-04-15T12:40:53.839Z,40.91
2023-04-15T12:41:53.845Z,40.80
2023-04-15T12:42:53.844Z,40.92
2023-04-15T12:43:53.859Z,40.31
2023-04-15T12:44:53.819Z,41.43
2023-04-15T12:45:53.832Z,39.38
2023-04-15T12:46:53.769Z,38.24
2023-04-15T12:47:53.786Z,36.31
2023-04-15T12:48:53.760Z,36.92
2023-04-15T12:49:53.738Z,36.83
2023-04-15T12:50:53.737Z,37.34
2023-04-15T12:51:53.709Z,37.04